Time;durP1;ratioP1;P1;durP2;ratioP2;P2;SDS_P1;SDS_P2;PMS_P1;PMS_P2;Temp;Humidity;BMP_temperature;BMP_pressure;BME280_temperature;BME280_humidity;BME280_pressure;Samples;Min_cycle;Max_cycle;Signal;HPM_P1;HPM_P2
2020/12/26 00:01:17;;;;;;;23.90;14.68;;;;;;;1.30;94.52;100364.30;1774810;80;21198;-37
2020/12/26 00:03:45;;;;;;;22.85;14.30;;;;;;;1.31;94.57;100367.30;1775028;80;20959;-36
2020/12/26 00:06:15;;;;;;;24.80;15.05;;;;;;;1.31;94.54;100374.95;1774830;80;20988;-38
2020/12/26 00:08:43;;;;;;;22.52;14.40;;;;;;;1.27;94.54;100388.08;1774934;80;21014;-36
2020/12/26 00:11:13;;;;;;;19.95;12.90;;;;;;;1.27;94.56;100394.45;1774955;80;20936;-37
2020/12/26 00:13:41;;;;;;;23.83;13.88;;;;;;;1.27;94.53;100399.95;1774819;80;21358;-36
2020/12/26 00:16:10;;;;;;;18.50;12.63;;;;;;;1.27;94.52;100395.73;1774862;80;20967;-37
2020/12/26 00:18:38;;;;;;;19.10;12.70;;;;;;;1.24;94.50;100389.27;1774880;80;21509;-36
2020/12/26 00:21:08;;;;;;;18.30;13.48;;;;;;;1.22;94.42;100386.27;1774952;80;21031;-37
2020/12/26 00:23:35;;;;;;;23.55;12.43;;;;;;;1.22;94.41;100386.27;1774786;80;21530;-35
2020/12/26 00:26:03;;;;;;;19.87;12.45;;;;;;;1.23;94.39;100385.44;1774975;80;21382;-36
2020/12/26 00:28:31;;;;;;;20.20;13.28;;;;;;;1.21;94.34;100371.80;1774863;80;20948;-36
2020/12/26 00:30:58;;;;;;;23.35;13.90;;;;;;;1.20;94.31;100384.95;1774292;80;21007;-36
2020/12/26 00:33:26;;;;;;;18.73;12.45;;;;;;;1.18;94.21;100377.69;1774701;80;20995;-36
2020/12/26 00:35:54;;;;;;;18.62;12.35;;;;;;;1.16;94.12;100375.53;1774923;80;20967;-36
2020/12/26 00:38:21;;;;;;;21.48;12.90;;;;;;;1.13;94.07;100376.75;1775050;80;21381;-36
2020/12/26 00:40:50;;;;;;;26.77;13.00;;;;;;;1.09;94.01;100376.25;1774756;80;21477;-35
2020/12/26 00:43:18;;;;;;;19.85;12.37;;;;;;;1.07;93.93;100363.45;1774886;80;20995;-36
2020/12/26 00:45:46;;;;;;;21.90;13.43;;;;;;;1.05;93.86;100351.09;1774905;80;21085;-36
2020/12/26 00:48:14;;;;;;;19.87;13.53;;;;;;;1.05;93.86;100349.82;1774880;80;20975;-35
2020/12/26 00:50:42;;;;;;;18.10;11.78;;;;;;;1.02;93.83;100341.28;1774993;80;21146;-36
2020/12/26 00:53:09;;;;;;;22.77;12.25;;;;;;;1.00;93.77;100365.02;1753304;80;21010;-35
2020/12/26 00:55:39;;;;;;;16.10;12.03;;;;;;;0.96;93.77;100378.97;1775046;80;20972;-36
2020/12/26 00:58:06;;;;;;;21.60;12.75;;;;;;;0.92;93.74;100385.69;1774872;80;21020;-36
2020/12/26 01:00:35;;;;;;;20.10;13.10;;;;;;;0.88;93.80;100374.99;1753231;80;21664;-38
2020/12/26 01:03:10;;;;;;;23.75;13.60;;;;;;;0.85;93.83;100374.50;1765273;80;21221;-38
2020/12/26 01:05:41;;;;;;;18.25;11.65;;;;;;;0.83;93.75;100368.95;1774919;80;20986;-35
2020/12/26 01:08:09;;;;;;;21.37;12.90;;;;;;;0.80;93.72;100369.73;1753385;80;20976;-36
2020/12/26 01:10:37;;;;;;;21.70;11.80;;;;;;;0.78;93.71;100370.55;1774863;80;20983;-36
2020/12/26 01:13:05;;;;;;;21.10;12.93;;;;;;;0.74;93.69;100370.89;1775044;80;20924;-36
2020/12/26 01:15:32;;;;;;;23.05;12.70;;;;;;;0.74;93.62;100379.81;1775081;80;21380;-35
2020/12/26 01:18:00;;;;;;;15.83;11.28;;;;;;;0.72;93.58;100381.47;1774970;80;20979;-36
2020/12/26 01:20:28;;;;;;;23.35;12.93;;;;;;;0.69;93.56;100389.90;1775049;80;20959;-35
2020/12/26 01:22:56;;;;;;;15.28;11.45;;;;;;;0.68;93.45;100386.06;1775077;80;21011;-36
2020/12/26 01:25:24;;;;;;;18.05;11.43;;;;;;;0.66;93.35;100379.64;1775143;80;20876;-36
2020/12/26 01:27:52;;;;;;;18.87;11.88;;;;;;;0.63;93.26;100378.71;1774989;80;21267;-37
2020/12/26 01:30:20;;;;;;;18.02;11.75;;;;;;;0.61;93.23;100371.45;1774342;80;21042;-35
2020/12/26 01:32:47;;;;;;;18.45;12.07;;;;;;;0.58;93.15;100373.54;1774889;80;20999;-35
2020/12/26 01:35:15;;;;;;;14.63;9.93;;;;;;;0.55;93.08;100376.87;1774970;80;20987;-37
2020/12/26 01:37:43;;;;;;;18.15;12.10;;;;;;;0.52;93.04;100379.78;1774980;80;20991;-36
2020/12/26 01:40:11;;;;;;;15.98;10.32;;;;;;;0.48;92.93;100370.33;1774979;80;21311;-35
2020/12/26 01:42:39;;;;;;;18.85;11.55;;;;;;;0.47;92.91;100375.86;1774943;80;20995;-37
2020/12/26 01:45:07;;;;;;;16.82;11.33;;;;;;;0.45;92.90;100372.81;1775014;80;21003;-36
2020/12/26 01:47:35;;;;;;;17.23;10.68;;;;;;;0.42;92.85;100371.08;1774881;80;20918;-36
2020/12/26 01:50:04;;;;;;;17.05;11.15;;;;;;;0.39;92.81;100379.94;1772688;80;20916;-34
2020/12/26 01:52:32;;;;;;;14.00;10.23;;;;;;;0.36;92.82;100387.08;1775065;80;21218;-36
2020/12/26 01:55:00;;;;;;;17.37;10.70;;;;;;;0.33;92.76;100375.55;1753150;80;21007;-35
2020/12/26 01:57:34;;;;;;;18.90;10.82;;;;;;;0.32;92.66;100380.59;1775031;80;20947;-35
2020/12/26 02:00:06;;;;;;;14.78;9.73;;;;;;;0.30;92.59;100392.05;1774917;80;21443;-35
2020/12/26 02:02:35;;;;;;;13.80;9.40;;;;;;;0.27;92.59;100403.44;1773588;80;20940;-36
2020/12/26 02:05:03;;;;;;;14.18;9.55;;;;;;;0.24;92.58;100394.03;1774900;80;21433;-36
2020/12/26 02:07:31;;;;;;;12.85;9.75;;;;;;;0.19;92.60;100371.82;1774905;80;20939;-36
2020/12/26 02:09:59;;;;;;;14.58;9.38;;;;;;;0.19;92.53;100368.87;1774952;80;20999;-35
2020/12/26 02:12:27;;;;;;;14.78;10.32;;;;;;;0.18;92.44;100371.38;1774909;80;21007;-36
2020/12/26 02:14:55;;;;;;;23.85;10.03;;;;;;;0.16;92.38;100371.36;1774924;80;21043;-36
2020/12/26 02:17:27;;;;;;;12.75;8.30;;;;;;;0.12;92.37;100355.14;1774965;80;21370;-36
2020/12/26 02:19:55;;;;;;;12.47;9.08;;;;;;;0.11;92.38;100367.82;1753232;80;21588;-36
2020/12/26 02:22:22;;;;;;;13.95;9.20;;;;;;;0.07;92.39;100379.64;1774861;80;21592;-36
2020/12/26 02:24:50;;;;;;;12.82;8.85;;;;;;;0.05;92.37;100384.23;1774992;80;20999;-36
2020/12/26 02:27:18;;;;;;;26.82;8.90;;;;;;;0.02;92.35;100399.44;1774990;80;20979;-35
2020/12/26 02:29:46;;;;;;;43.08;8.75;;;;;;;-0.02;92.41;100412.09;1774937;80;22625;-35
2020/12/26 02:32:14;;;;;;;14.45;8.13;;;;;;;-0.05;92.44;100409.48;1774820;80;21109;-35
2020/12/26 02:34:43;;;;;;;10.85;8.15;;;;;;;-0.07;92.42;100392.05;1774908;80;21105;-36
2020/12/26 02:37:11;;;;;;;12.07;7.50;;;;;;;-0.09;92.38;100381.36;1774954;80;21000;-36
2020/12/26 02:39:39;;;;;;;10.18;7.53;;;;;;;-0.10;92.38;100384.34;1774977;80;20999;-35
2020/12/26 02:42:07;;;;;;;10.30;8.50;;;;;;;-0.12;92.39;100396.17;1775074;80;21208;-35
2020/12/26 02:44:36;;;;;;;11.63;7.62;;;;;;;-0.13;92.46;100403.75;1774944;80;21168;-37
2020/12/26 02:47:04;;;;;;;13.85;8.40;;;;;;;-0.14;92.39;100413.05;1775050;80;21007;-36
2020/12/26 02:49:32;;;;;;;12.00;7.70;;;;;;;-0.13;92.39;100415.20;1774859;80;20989;-36
2020/12/26 02:52:00;;;;;;;11.85;7.53;;;;;;;-0.15;92.40;100421.52;1774922;80;21108;-36
2020/12/26 02:54:28;;;;;;;11.43;7.20;;;;;;;-0.18;92.43;100417.63;1775034;80;21992;-36
2020/12/26 02:56:56;;;;;;;9.00;7.17;;;;;;;-0.19;92.43;100406.60;1774819;80;21026;-36
2020/12/26 02:59:24;;;;;;;91.95;9.20;;;;;;;-0.19;92.40;100415.91;1775021;80;20924;-36
2020/12/26 03:01:52;;;;;;;12.78;6.95;;;;;;;-0.20;92.42;100422.69;1774793;80;20944;-36
2020/12/26 03:04:19;;;;;;;9.40;7.33;;;;;;;-0.21;92.44;100415.00;1774874;80;21003;-36
2020/12/26 03:06:47;;;;;;;10.88;7.60;;;;;;;-0.23;92.43;100407.35;1774986;80;21387;-35
2020/12/26 03:09:15;;;;;;;10.63;7.45;;;;;;;-0.23;92.40;100409.89;1774936;80;21022;-36
2020/12/26 03:11:43;;;;;;;9.88;7.03;;;;;;;-0.20;92.39;100416.33;1774875;80;20932;-35
2020/12/26 03:14:11;;;;;;;9.30;6.35;;;;;;;-0.21;92.39;100417.55;1774918;80;21054;-37
2020/12/26 03:16:39;;;;;;;7.10;6.35;;;;;;;-0.22;92.40;100434.52;1774906;80;20987;-37
2020/12/26 03:19:07;;;;;;;8.63;6.65;;;;;;;-0.25;92.42;100434.44;1774963;80;21257;-36
2020/12/26 03:21:35;;;;;;;8.70;6.50;;;;;;;-0.24;92.41;100437.83;1774774;80;20932;-37
2020/12/26 03:24:03;;;;;;;8.90;7.30;;;;;;;-0.25;92.37;100452.25;1774868;80;21014;-37
2020/12/26 03:26:31;;;;;;;11.63;6.70;;;;;;;-0.26;92.38;100458.56;1774900;80;20881;-35
2020/12/26 03:28:59;;;;;;;15.93;5.83;;;;;;;-0.26;92.38;100458.13;1774917;80;20999;-36
2020/12/26 03:31:27;;;;;;;8.75;5.72;;;;;;;-0.28;92.40;100464.87;1775664;80;21200;-36
2020/12/26 03:33:54;;;;;;;8.98;6.72;;;;;;;-0.28;92.42;100469.95;1783321;80;20994;-35
2020/12/26 03:36:22;;;;;;;7.70;5.95;;;;;;;-0.25;92.40;100476.82;1783465;80;21002;-36
2020/12/26 03:38:50;;;;;;;6.65;5.50;;;;;;;-0.25;92.33;100484.45;1783338;80;20986;-35
2020/12/26 03:41:18;;;;;;;10.28;6.28;;;;;;;-0.26;92.42;100492.91;1783411;80;21007;-36
2020/12/26 03:43:45;;;;;;;10.43;6.55;;;;;;;-0.28;92.46;100499.64;1783433;80;21392;-35
2020/12/26 03:46:13;;;;;;;8.30;6.30;;;;;;;-0.28;92.44;100497.09;1783363;80;20955;-36
2020/12/26 03:48:41;;;;;;;6.47;5.78;;;;;;;-0.27;92.41;100496.27;1783402;80;21007;-35
2020/12/26 03:51:10;;;;;;;9.43;6.15;;;;;;;-0.26;92.36;100494.19;1783380;80;21042;-36
2020/12/26 03:53:37;;;;;;;7.05;6.05;;;;;;;-0.28;92.36;100497.94;1783460;80;20998;-36
2020/12/26 03:56:05;;;;;;;6.67;6.05;;;;;;;-0.30;92.36;100495.38;1783502;80;21451;-35
2020/12/26 03:58:33;;;;;;;6.40;5.25;;;;;;;-0.28;92.40;100500.48;1755475;80;21023;-37
2020/12/26 04:01:02;;;;;;;5.97;5.37;;;;;;;-0.28;92.38;100495.83;1783435;80;20935;-35
2020/12/26 04:03:31;;;;;;;6.90;6.20;;;;;;;-0.27;92.36;100503.91;1783369;80;20951;-36
2020/12/26 04:05:59;;;;;;;6.75;6.05;;;;;;;-0.31;92.37;100500.02;1783389;80;20983;-35
2020/12/26 04:08:27;;;;;;;8.70;6.65;;;;;;;-0.32;92.39;100505.92;1783356;80;21197;-35
2020/12/26 04:10:54;;;;;;;9.95;6.42;;;;;;;-0.32;92.34;100508.86;1783266;80;21062;-37
2020/12/26 04:13:22;;;;;;;7.30;5.90;;;;;;;-0.33;92.37;100502.05;1783353;80;20880;-36
2020/12/26 04:15:50;;;;;;;7.45;5.70;;;;;;;-0.34;92.34;100510.50;1783355;80;21020;-35
2020/12/26 04:18:18;;;;;;;6.58;5.97;;;;;;;-0.35;92.35;100502.03;1783379;80;21019;-36
2020/12/26 04:20:46;;;;;;;7.35;6.22;;;;;;;-0.36;92.33;100507.94;1783545;80;21390;-37
2020/12/26 04:23:14;;;;;;;7.05;6.20;;;;;;;-0.39;92.35;100512.92;1783257;80;20931;-35
2020/12/26 04:25:42;;;;;;;8.40;6.72;;;;;;;-0.39;92.37;100507.83;1783286;80;21015;-38
2020/12/26 04:28:09;;;;;;;8.08;6.75;;;;;;;-0.38;92.33;100504.89;1783417;80;20986;-36
2020/12/26 04:30:37;;;;;;;7.05;6.28;;;;;;;-0.40;92.29;100504.83;1783287;80;20967;-36
2020/12/26 04:33:05;;;;;;;8.60;6.25;;;;;;;-0.41;92.26;100506.08;1783252;80;21604;-36
2020/12/26 04:35:33;;;;;;;9.68;6.65;;;;;;;-0.44;92.28;100511.55;1783377;80;20935;-35
2020/12/26 04:38:00;;;;;;;7.72;6.40;;;;;;;-0.44;92.30;100520.84;1783458;80;20975;-34
2020/12/26 04:40:28;;;;;;;8.53;5.20;;;;;;;-0.45;92.29;100511.48;1783335;80;20999;-36
2020/12/26 04:42:56;;;;;;;8.03;6.30;;;;;;;-0.47;92.29;100514.39;1783478;80;21129;-37
2020/12/26 04:47:42;;;;;;;9.60;6.35;;;;;;;-0.47;92.34;100519.09;1777111;79;22772;-34
2020/12/26 04:50:10;;;;;;;8.83;6.67;;;;;;;-0.51;92.33;100523.61;1749742;82;20939;-36
2020/12/26 04:52:38;;;;;;;8.23;6.05;;;;;;;-0.51;92.29;100525.31;1749596;82;21267;-35
2020/12/26 04:55:06;;;;;;;6.37;5.55;;;;;;;-0.51;92.30;100525.31;1720686;82;21107;-37
2020/12/26 04:57:34;;;;;;;7.50;6.65;;;;;;;-0.54;92.33;100522.26;1749667;82;20979;-36
2020/12/26 05:00:06;;;;;;;7.53;5.90;;;;;;;-0.54;92.31;100525.23;1749670;82;21144;-37
2020/12/26 05:02:42;;;;;;;6.78;5.45;;;;;;;-0.54;92.30;100528.62;1749691;81;21572;-35
2020/12/26 05:05:11;;;;;;;6.72;5.37;;;;;;;-0.54;92.29;100523.95;1722398;82;21259;-34
2020/12/26 05:07:41;;;;;;;15.40;5.55;;;;;;;-0.56;92.34;100533.23;1749688;81;21655;-36
2020/12/26 05:10:09;;;;;;;6.75;5.33;;;;;;;-0.57;92.36;100532.78;1749693;82;20939;-34
2020/12/26 05:12:38;;;;;;;5.87;5.28;;;;;;;-0.57;92.35;100532.78;1749511;82;20891;-35
2020/12/26 05:15:06;;;;;;;7.20;5.33;;;;;;;-0.56;92.35;100539.16;1749682;82;21253;-35
2020/12/26 05:17:34;;;;;;;6.58;5.80;;;;;;;-0.59;92.32;100538.69;1669724;82;22712;-36
2020/12/26 05:20:02;;;;;;;6.87;5.45;;;;;;;-0.60;92.34;100543.31;1720416;82;20927;-36
2020/12/26 05:22:31;;;;;;;7.62;5.17;;;;;;;-0.60;92.34;100539.89;1720721;82;20939;-36
2020/12/26 05:25:07;;;;;;;9.25;5.53;;;;;;;-0.61;92.33;100537.78;1749717;82;21011;-36
2020/12/26 05:27:35;;;;;;;8.13;6.15;;;;;;;-0.61;92.34;100540.33;1749680;82;20963;-36
2020/12/26 05:30:05;;;;;;;4.65;4.33;;;;;;;-0.63;92.37;100544.50;1749605;82;21557;-36
2020/12/26 05:32:33;;;;;;;8.30;5.15;;;;;;;-0.62;92.35;100541.53;1749609;81;20931;-35
2020/12/26 05:35:06;;;;;;;8.45;5.60;;;;;;;-0.62;92.30;100550.05;1749624;82;20940;-36
2020/12/26 05:37:35;;;;;;;5.95;5.37;;;;;;;-0.64;92.29;100554.19;1749640;82;20939;-35
2020/12/26 05:40:03;;;;;;;5.60;5.10;;;;;;;-0.64;92.28;100554.19;1749680;82;21506;-35
2020/12/26 05:42:31;;;;;;;5.60;5.00;;;;;;;-0.65;92.27;100552.89;1749637;82;21375;-36
2020/12/26 05:45:08;;;;;;;5.25;4.75;;;;;;;-0.65;92.29;100558.83;1749567;82;20972;-34
2020/12/26 05:47:35;;;;;;;6.58;5.37;;;;;;;-0.67;92.29;100564.28;1737501;81;21521;-36
2020/12/26 05:50:03;;;;;;;5.15;4.62;;;;;;;-0.69;92.33;100571.00;1736479;82;21022;-36
2020/12/26 05:52:33;;;;;;;6.37;5.67;;;;;;;-0.68;92.32;100568.91;1733691;82;20919;-36
2020/12/26 05:55:00;;;;;;;5.72;4.90;;;;;;;-0.67;92.29;100569.79;1736453;82;21598;-35
2020/12/26 05:57:28;;;;;;;6.00;5.12;;;;;;;-0.66;92.31;100584.23;1665651;82;20952;-35
2020/12/26 05:59:56;;;;;;;7.17;5.78;;;;;;;-0.68;92.33;100589.25;1715487;82;20983;-34
2020/12/26 06:02:28;;;;;;;6.40;5.35;;;;;;;-0.69;92.30;100586.26;1735866;82;20975;-36
2020/12/26 06:05:04;;;;;;;5.35;4.78;;;;;;;-0.68;92.28;100598.58;1735840;82;21008;-36
2020/12/26 06:07:36;;;;;;;;;;;;;;;-0.68;92.29;100612.14;1738395;81;21363;-35
2020/12/26 06:10:06;;;;;;;9.35;5.40;;;;;;;-0.70;92.33;100613.77;1735967;82;20555;-36
2020/12/26 06:12:34;;;;;;;6.22;4.95;;;;;;;-0.71;92.37;100609.93;1736001;82;21034;-36
2020/12/26 06:15:03;;;;;;;9.25;5.12;;;;;;;-0.71;92.40;100612.05;1735769;82;20897;-36
2020/12/26 06:17:33;;;;;;;6.58;4.97;;;;;;;-0.68;92.33;100619.77;1735804;82;20936;-37
2020/12/26 06:20:07;;;;;;;6.28;5.37;;;;;;;-0.68;92.31;100617.65;1735909;82;21200;-36
2020/12/26 06:22:46;;;;;;;6.92;5.90;;;;;;;-0.69;92.30;100620.58;1735703;82;20964;-37
2020/12/26 06:25:19;;;;;;;6.87;5.30;;;;;;;-0.67;92.29;100629.55;1735829;82;21036;-36
2020/12/26 06:28:01;;;;;;;7.55;5.10;;;;;;;-0.63;92.27;100637.32;1810523;77;23221;-35
2020/12/26 06:30:29;;;;;;;6.03;4.85;;;;;;;-0.66;92.24;100637.20;1782338;80;20971;-35
2020/12/26 06:32:57;;;;;;;14.83;6.50;;;;;;;-0.65;92.18;100636.81;1782186;80;21411;-37
2020/12/26 06:35:26;;;;;;;9.20;6.37;;;;;;;-0.66;92.22;100642.28;1782167;80;21161;-36
2020/12/26 06:38:13;;;;;;;7.75;6.03;;;;;;;-0.64;92.20;100654.64;1782195;79;21038;-35
2020/12/26 06:41:03;;;;;;;8.33;6.62;;;;;;;-0.62;92.14;100663.20;1778422;80;20951;-35
2020/12/26 06:43:54;;;;;;;7.53;6.15;;;;;;;-0.60;92.05;100675.95;1782402;80;21298;-36
2020/12/26 06:46:28;;;;;;;11.28;6.92;;;;;;;-0.60;92.02;100698.45;1751727;80;21197;-36
2020/12/26 06:48:57;;;;;;;9.65;6.95;;;;;;;-0.56;91.95;100713.80;1782073;80;21022;-36
2020/12/26 06:51:37;;;;;;;6.45;5.85;;;;;;;-0.53;91.75;100712.62;1782222;80;20908;-39
2020/12/26 06:54:07;;;;;;;6.83;5.53;;;;;;;-0.52;91.69;100724.09;1781767;80;20935;-35
2020/12/26 06:56:46;;;;;;;8.10;6.03;;;;;;;-0.53;91.64;100729.15;1782220;80;20983;-36
2020/12/26 06:59:15;;;;;;;9.40;5.70;;;;;;;-0.54;91.59;100732.09;1782180;80;21362;-35
2020/12/26 07:01:46;;;;;;;7.75;5.30;;;;;;;-0.52;91.36;100734.27;1781977;80;20975;-36
2020/12/26 07:04:19;;;;;;;5.78;4.85;;;;;;;-0.50;91.09;100717.41;1782240;80;22087;-35
2020/12/26 07:06:54;;;;;;;11.50;5.17;;;;;;;-0.49;90.92;100717.86;1782044;80;20987;-36
2020/12/26 07:09:44;;;;;;;5.28;4.78;;;;;;;-0.47;90.92;100724.25;1782288;80;20904;-37
2020/12/26 07:12:13;;;;;;;7.10;5.33;;;;;;;-0.46;90.80;100719.61;1782136;79;21494;-33
2020/12/26 07:14:45;;;;;;;7.30;5.90;;;;;;;-0.45;90.64;100729.84;1782081;80;21062;-35
2020/12/26 07:17:21;;;;;;;5.28;4.78;;;;;;;-0.42;90.66;100725.67;1782263;79;20979;-35
2020/12/26 07:19:51;;;;;;;7.03;5.30;;;;;;;-0.40;90.63;100724.03;1782228;80;20987;-35
2020/12/26 07:22:30;;;;;;;8.48;5.75;;;;;;;-0.39;90.63;100730.84;1782266;80;21465;-35
2020/12/26 07:25:07;;;;;;;7.42;5.50;;;;;;;-0.37;90.56;100716.10;1782148;79;21190;-35
2020/12/26 07:27:39;;;;;;;7.75;6.17;;;;;;;-0.33;90.40;100716.64;1782660;80;20927;-36
2020/12/26 07:30:18;;;;;;;8.18;5.58;;;;;;;-0.31;90.18;100720.09;1782981;80;21163;-35
2020/12/26 07:32:50;;;;;;;8.33;5.90;;;;;;;-0.27;90.04;100724.84;1782997;80;21034;-36
2020/12/26 07:35:26;;;;;;;7.90;6.30;;;;;;;-0.25;90.02;100719.82;1783034;80;21497;-38
2020/12/26 07:38:11;;;;;;;8.78;6.15;;;;;;;-0.23;89.94;100720.73;1782761;80;22543;-36
2020/12/26 07:40:45;;;;;;;10.00;5.97;;;;;;;-0.20;89.79;100717.00;1782248;80;21162;-38
2020/12/26 07:43:15;;;;;;;9.58;5.58;;;;;;;-0.15;89.76;100712.91;1782571;80;20924;-36
2020/12/26 07:45:45;;;;;;;12.58;5.78;;;;;;;-0.09;89.78;100706.74;1782257;80;20935;-37
2020/12/26 07:48:13;;;;;;;7.33;5.78;;;;;;;-0.04;89.57;100721.73;1782478;80;20998;-36
2020/12/26 07:50:43;;;;;;;7.60;6.17;;;;;;;0.02;89.56;100713.81;1782479;80;21010;-36
2020/12/26 07:53:13;;;;;;;8.28;5.58;;;;;;;0.12;89.49;100717.06;1782105;80;21006;-38
2020/12/26 07:55:41;;;;;;;8.13;5.97;;;;;;;0.17;89.14;100704.08;1782449;80;21030;-35
2020/12/26 07:58:13;;;;;;;7.97;6.47;;;;;;;0.24;88.89;100706.37;1782447;80;20971;-35
2020/12/26 08:00:43;;;;;;;8.55;6.28;;;;;;;0.28;88.49;100706.50;1782348;80;20986;-36
2020/12/26 08:03:12;;;;;;;7.50;6.30;;;;;;;0.31;88.38;100705.73;1782413;80;22554;-36
2020/12/26 08:05:47;;;;;;;8.10;6.20;;;;;;;0.38;88.40;100720.75;1782309;80;20986;-35
2020/12/26 08:08:26;;;;;;;10.80;6.70;;;;;;;0.46;88.46;100713.33;1782431;80;20923;-37
2020/12/26 08:11:01;;;;;;;6.70;5.55;;;;;;;0.52;88.08;100703.33;1782400;80;21054;-37
2020/12/26 08:13:31;;;;;;;6.78;5.10;;;;;;;0.61;87.89;100700.13;1782415;80;21438;-36
2020/12/26 08:16:05;;;;;;;6.33;4.97;;;;;;;0.66;87.07;100695.62;1782264;80;21181;-35
2020/12/26 08:18:33;;;;;;;6.40;5.15;;;;;;;0.70;85.92;100698.69;1782314;80;20999;-34
2020/12/26 08:21:01;;;;;;;5.62;5.03;;;;;;;0.78;85.68;100696.77;1753998;80;20951;-35
2020/12/26 08:23:29;;;;;;;8.23;5.08;;;;;;;0.84;85.09;100693.09;1782356;80;20967;-36
2020/12/26 08:26:00;;;;;;;4.95;4.33;;;;;;;0.94;85.15;100678.90;1782446;80;21526;-36
2020/12/26 08:28:30;;;;;;;5.42;4.40;;;;;;;1.03;84.67;100691.86;1782384;80;21256;-37
2020/12/26 08:31:02;;;;;;;5.78;4.15;;;;;;;1.05;83.53;100694.47;1782171;80;21041;-38
2020/12/26 08:33:39;;;;;;;3.87;3.50;;;;;;;1.03;82.93;100685.92;1731553;80;21565;-35
2020/12/26 08:36:28;;;;;;;4.65;4.25;;;;;;;1.02;83.18;100680.38;1782537;80;21034;-35
2020/12/26 08:38:58;;;;;;;4.33;3.85;;;;;;;1.02;83.39;100685.04;1782088;80;21532;-37
2020/12/26 08:41:27;;;;;;;4.10;3.70;;;;;;;1.03;83.24;100691.86;1782457;80;21433;-36
2020/12/26 08:43:54;;;;;;;4.80;3.72;;;;;;;1.01;83.03;100692.23;1782351;80;21042;-37
2020/12/26 08:46:25;;;;;;;4.97;4.08;;;;;;;0.98;83.15;100698.55;1782298;80;21641;-37
2020/12/26 08:48:55;;;;;;;4.42;4.03;;;;;;;0.98;83.57;100702.37;1782272;80;21411;-36
2020/12/26 08:51:26;;;;;;;5.03;3.98;;;;;;;1.00;83.83;100701.56;1782242;80;20904;-35
2020/12/26 08:53:56;;;;;;;5.25;3.92;;;;;;;1.03;83.66;100699.94;1782323;80;21408;-36
2020/12/26 08:56:36;;;;;;;6.08;4.45;;;;;;;1.05;83.89;100708.06;1782383;80;20908;-37
2020/12/26 08:59:04;;;;;;;4.97;4.40;;;;;;;1.10;83.97;100703.92;1782368;80;20920;-36
2020/12/26 09:01:33;;;;;;;5.22;4.42;;;;;;;1.20;83.84;100716.92;1782386;80;20955;-36
2020/12/26 09:04:01;;;;;;;5.78;4.35;;;;;;;1.34;83.93;100725.75;1782296;80;20872;-35
2020/12/26 09:06:43;;;;;;;5.20;4.15;;;;;;;1.45;83.25;100714.52;1782326;80;21449;-36
2020/12/26 09:09:25;;;;;;;4.58;4.17;;;;;;;1.58;83.28;100713.11;1782297;80;21054;-35
2020/12/26 09:12:04;;;;;;;4.33;3.55;;;;;;;1.74;82.77;100710.92;1782311;80;20927;-37
2020/12/26 09:14:32;;;;;;;3.85;3.45;;;;;;;1.82;81.80;100723.02;1754399;80;20980;-35
2020/12/26 09:17:01;;;;;;;5.03;3.75;;;;;;;1.80;81.34;100745.51;1751456;82;20974;-36
2020/12/26 09:19:45;;;;;;;7.08;3.55;;;;;;;1.73;80.23;100757.27;1751333;82;21211;-37
2020/12/26 09:22:13;;;;;;;6.53;3.00;;;;;;;1.64;80.28;100766.00;1751147;82;21390;-36
2020/12/26 09:24:41;;;;;;;4.17;3.47;;;;;;;1.58;80.68;100775.64;1751346;80;21010;-35
2020/12/26 09:27:19;;;;;;;3.90;3.60;;;;;;;1.63;80.77;100788.52;1747527;81;20983;-36
2020/12/26 09:29:51;;;;;;;3.67;3.25;;;;;;;1.69;80.56;100776.77;1737345;82;21015;-36
2020/12/26 09:32:18;;;;;;;4.47;3.70;;;;;;;1.78;80.44;100767.19;1737451;82;21320;-37
2020/12/26 09:34:46;;;;;;;4.33;3.90;;;;;;;1.90;80.44;100747.85;1737413;82;20935;-36
2020/12/26 09:37:14;;;;;;;5.05;3.87;;;;;;;1.98;80.46;100739.94;1737422;82;20983;-36
2020/12/26 09:39:42;;;;;;;4.47;3.72;;;;;;;2.06;80.13;100743.93;1737347;82;21026;-38
2020/12/26 09:42:10;;;;;;;6.42;3.72;;;;;;;2.18;78.82;100748.44;1716743;82;20932;-37
2020/12/26 09:44:39;;;;;;;5.45;3.75;;;;;;;2.17;78.75;100736.09;1737294;82;22732;-36
2020/12/26 09:47:07;;;;;;;4.20;3.80;;;;;;;2.20;78.86;100741.27;1737300;82;21181;-37
2020/12/26 09:49:35;;;;;;;5.08;3.90;;;;;;;2.20;78.77;100729.77;1737308;82;20952;-36
2020/12/26 09:52:04;;;;;;;5.53;3.02;;;;;;;2.21;78.60;100705.95;1737327;81;20944;-36
2020/12/26 09:54:31;;;;;;;4.83;3.47;;;;;;;2.21;78.57;100698.28;1737298;82;21300;-36
2020/12/26 09:56:59;;;;;;;3.80;3.50;;;;;;;2.19;78.07;100711.44;1737290;82;21196;-36
2020/12/26 09:59:27;;;;;;;3.47;3.00;;;;;;;2.13;78.17;100716.41;1737330;82;21011;-38
2020/12/26 10:01:56;;;;;;;4.60;3.20;;;;;;;2.12;78.45;100718.11;1737386;82;20932;-36
2020/12/26 10:04:24;;;;;;;3.30;3.08;;;;;;;2.15;78.24;100728.39;1737320;82;20967;-38
2020/12/26 10:06:52;;;;;;;3.40;2.87;;;;;;;2.18;78.58;100722.49;1737337;82;20903;-35
2020/12/26 10:09:20;;;;;;;3.02;2.75;;;;;;;2.22;78.52;100719.56;1737437;82;22748;-37
2020/12/26 10:11:50;;;;;;;4.08;3.45;;;;;;;2.17;77.84;100722.45;1737183;82;21002;-37
2020/12/26 10:14:18;;;;;;;5.22;3.15;;;;;;;2.08;77.63;100731.66;1737347;82;21042;-36
2020/12/26 10:16:46;;;;;;;3.47;3.08;;;;;;;1.96;77.75;100732.26;1737385;81;20944;-36
2020/12/26 10:19:14;;;;;;;3.22;3.02;;;;;;;1.87;78.17;100740.97;1737407;82;21031;-35
2020/12/26 10:21:42;;;;;;;4.55;3.27;;;;;;;1.82;78.51;100739.62;1737226;82;21373;-35
2020/12/26 10:24:10;;;;;;;3.22;2.98;;;;;;;1.83;78.82;100732.41;1737359;82;21010;-35
2020/12/26 10:26:38;;;;;;;7.50;3.02;;;;;;;1.88;79.26;100710.78;1737311;82;20939;-37
2020/12/26 10:29:06;;;;;;;3.10;2.85;;;;;;;1.94;78.60;100715.17;1744595;81;20927;-37
2020/12/26 10:31:35;;;;;;;4.37;2.95;;;;;;;1.90;78.95;100732.13;1745363;82;20868;-36
2020/12/26 10:34:03;;;;;;;3.22;2.92;;;;;;;1.94;79.14;100729.21;1745583;82;21888;-37
2020/12/26 10:36:31;;;;;;;4.05;3.05;;;;;;;1.99;78.74;100737.42;1745588;82;21083;-35
2020/12/26 10:38:59;;;;;;;3.58;3.15;;;;;;;2.00;78.65;100743.38;1745628;82;20971;-36
2020/12/26 10:41:27;;;;;;;3.22;2.87;;;;;;;1.98;78.00;100743.77;1745393;81;20979;-36
2020/12/26 10:43:55;;;;;;;3.52;3.22;;;;;;;1.98;78.00;100751.42;1745523;82;21046;-35
2020/12/26 10:46:23;;;;;;;3.20;2.83;;;;;;;1.98;77.91;100751.02;1745489;82;22150;-38
2020/12/26 10:48:51;;;;;;;3.50;3.00;;;;;;;2.03;77.96;100758.80;1745395;82;20956;-34
2020/12/26 10:51:19;;;;;;;3.45;2.98;;;;;;;2.08;77.69;100770.37;1745436;82;21089;-38
2020/12/26 10:53:47;;;;;;;2.55;2.35;;;;;;;2.05;77.51;100775.02;1745523;81;21026;-35
2020/12/26 10:56:14;;;;;;;3.65;2.80;;;;;;;2.06;77.78;100768.20;1745472;82;20995;-36
2020/12/26 10:58:42;;;;;;;3.42;2.87;;;;;;;2.03;77.34;100761.34;1745482;82;21215;-37
2020/12/26 11:01:10;;;;;;;4.95;2.85;;;;;;;1.95;77.35;100757.34;1745326;82;21347;-37
2020/12/26 11:03:38;;;;;;;2.75;2.55;;;;;;;1.86;77.35;100755.84;1745484;82;20995;-36
2020/12/26 11:06:06;;;;;;;4.20;3.25;;;;;;;1.76;77.43;100761.16;1745370;82;21469;-36
2020/12/26 11:08:34;;;;;;;6.97;3.50;;;;;;;1.70;77.62;100773.39;1716518;82;21018;-36
2020/12/26 11:11:02;;;;;;;3.60;2.70;;;;;;;1.69;77.96;100769.52;1745462;82;21199;-36
2020/12/26 11:13:30;;;;;;;4.03;3.30;;;;;;;1.70;78.12;100771.23;1745537;82;21002;-35
2020/12/26 11:15:57;;;;;;;3.77;3.30;;;;;;;1.69;77.98;100778.45;1745552;82;21018;-35
2020/12/26 11:18:25;;;;;;;4.15;2.72;;;;;;;1.67;77.53;100780.98;1745663;82;20944;-36
2020/12/26 11:20:53;;;;;;;5.85;3.15;;;;;;;1.64;77.28;100782.19;1745583;82;20911;-36
2020/12/26 11:23:21;;;;;;;5.42;2.95;;;;;;;1.62;77.42;100782.97;1745640;82;21299;-37
2020/12/26 11:25:49;;;;;;;3.33;3.02;;;;;;;1.60;77.34;100784.19;1745654;81;21167;-37
2020/12/26 11:28:18;;;;;;;3.40;3.10;;;;;;;1.64;77.14;100782.19;1738474;82;20999;-38
2020/12/26 11:30:46;;;;;;;4.20;3.00;;;;;;;1.66;76.83;100782.20;1737519;82;20915;-36
2020/12/26 11:33:14;;;;;;;4.30;3.10;;;;;;;1.62;76.42;100790.63;1737514;82;20983;-36
2020/12/26 11:35:42;;;;;;;3.52;3.15;;;;;;;1.61;76.34;100802.50;1737390;82;21980;-36
2020/12/26 11:38:10;;;;;;;2.92;2.72;;;;;;;1.59;76.47;100810.54;1737416;82;20976;-37
2020/12/26 11:40:38;;;;;;;3.47;2.72;;;;;;;1.55;75.79;100812.57;1737414;82;20971;-37